sensor_id;sensor_type;location;lat;lon;timestamp;P1;durP1;ratioP1;P2;durP2;ratioP2
19260;SDS011;9764;48.114;11.670;2023-06-10T00:00:08;3.63;;;3.33;;
19260;SDS011;9764;48.114;11.670;2023-06-10T00:02:39;3.40;;;3.10;;
19260;SDS011;9764;48.114;11.670;2023-06-10T00:05:09;4.95;;;3.80;;
19260;SDS011;9764;48.114;11.670;2023-06-10T00:07:38;4.88;;;3.80;;
19260;SDS011;9764;48.114;11.670;2023-06-10T00:10:09;4.40;;;3.55;;
19260;SDS011;9764;48.114;11.670;2023-06-10T00:12:38;4.15;;;3.60;;
19260;SDS011;9764;48.114;11.670;2023-06-10T00:15:07;4.10;;;3.80;;
19260;SDS011;9764;48.114;11.670;2023-06-10T00:17:36;4.43;;;3.60;;
19260;SDS011;9764;48.114;11.670;2023-06-10T00:20:07;4.55;;;3.97;;
19260;SDS011;9764;48.114;11.670;2023-06-10T00:22:39;3.90;;;3.60;;
19260;SDS011;9764;48.114;11.670;2023-06-10T00:25:10;3.85;;;3.55;;
19260;SDS011;9764;48.114;11.670;2023-06-10T00:27:38;3.70;;;3.40;;
19260;SDS011;9764;48.114;11.670;2023-06-10T00:30:07;3.95;;;3.63;;
19260;SDS011;9764;48.114;11.670;2023-06-10T00:32:36;3.60;;;3.30;;
19260;SDS011;9764;48.114;11.670;2023-06-10T00:35:05;4.05;;;3.65;;
19260;SDS011;9764;48.114;11.670;2023-06-10T00:37:34;4.43;;;3.40;;
19260;SDS011;9764;48.114;11.670;2023-06-10T00:40:03;4.28;;;3.88;;
19260;SDS011;9764;48.114;11.670;2023-06-10T00:42:34;4.57;;;3.83;;
19260;SDS011;9764;48.114;11.670;2023-06-10T00:45:02;4.53;;;3.55;;
19260;SDS011;9764;48.114;11.670;2023-06-10T00:47:31;4.40;;;3.80;;
19260;SDS011;9764;48.114;11.670;2023-06-10T00:49:59;4.22;;;3.83;;
19260;SDS011;9764;48.114;11.670;2023-06-10T00:52:29;4.38;;;3.80;;
19260;SDS011;9764;48.114;11.670;2023-06-10T00:54:57;3.78;;;3.47;;
19260;SDS011;9764;48.114;11.670;2023-06-10T00:57:26;4.38;;;3.90;;
19260;SDS011;9764;48.114;11.670;2023-06-10T00:59:57;3.95;;;3.55;;
19260;SDS011;9764;48.114;11.670;2023-06-10T01:02:25;4.55;;;3.78;;
19260;SDS011;9764;48.114;11.670;2023-06-10T01:04:57;3.80;;;3.50;;
19260;SDS011;9764;48.114;11.670;2023-06-10T01:07:28;5.00;;;4.50;;
19260;SDS011;9764;48.114;11.670;2023-06-10T01:10:05;3.90;;;3.60;;
19260;SDS011;9764;48.114;11.670;2023-06-10T01:12:39;3.78;;;3.47;;
19260;SDS011;9764;48.114;11.670;2023-06-10T01:15:16;4.35;;;3.95;;
19260;SDS011;9764;48.114;11.670;2023-06-10T01:17:53;4.45;;;4.05;;
19260;SDS011;9764;48.114;11.670;2023-06-10T01:20:24;4.25;;;3.85;;
19260;SDS011;9764;48.114;11.670;2023-06-10T01:22:57;4.25;;;3.85;;
19260;SDS011;9764;48.114;11.670;2023-06-10T01:25:26;4.53;;;3.88;;
19260;SDS011;9764;48.114;11.670;2023-06-10T01:27:58;4.22;;;3.83;;
19260;SDS011;9764;48.114;11.670;2023-06-10T01:30:32;4.32;;;3.60;;
19260;SDS011;9764;48.114;11.670;2023-06-10T01:33:06;4.30;;;3.78;;
19260;SDS011;9764;48.114;11.670;2023-06-10T01:35:37;5.00;;;4.50;;
19260;SDS011;9764;48.114;11.670;2023-06-10T01:38:09;5.25;;;4.07;;
19260;SDS011;9764;48.114;11.670;2023-06-10T01:40:40;4.75;;;3.70;;
19260;SDS011;9764;48.114;11.670;2023-06-10T01:43:09;4.38;;;3.72;;
19260;SDS011;9764;48.114;11.670;2023-06-10T01:45:38;5.93;;;3.90;;
19260;SDS011;9764;48.114;11.670;2023-06-10T01:48:07;4.93;;;4.28;;
19260;SDS011;9764;48.114;11.670;2023-06-10T01:50:35;4.47;;;3.80;;
19260;SDS011;9764;48.114;11.670;2023-06-10T01:53:04;4.43;;;3.80;;
19260;SDS011;9764;48.114;11.670;2023-06-10T01:55:34;4.57;;;4.18;;
19260;SDS011;9764;48.114;11.670;2023-06-10T01:58:02;3.97;;;3.58;;
19260;SDS011;9764;48.114;11.670;2023-06-10T02:00:30;4.72;;;4.10;;
19260;SDS011;9764;48.114;11.670;2023-06-10T02:03:00;4.25;;;3.53;;
19260;SDS011;9764;48.114;11.670;2023-06-10T02:05:29;4.00;;;3.60;;
19260;SDS011;9764;48.114;11.670;2023-06-10T02:07:57;4.85;;;3.67;;
19260;SDS011;9764;48.114;11.670;2023-06-10T02:10:25;4.53;;;4.07;;
19260;SDS011;9764;48.114;11.670;2023-06-10T02:12:57;4.03;;;3.72;;
19260;SDS011;9764;48.114;11.670;2023-06-10T02:15:26;4.03;;;3.63;;
19260;SDS011;9764;48.114;11.670;2023-06-10T02:17:54;4.10;;;3.65;;
19260;SDS011;9764;48.114;11.670;2023-06-10T02:20:23;4.22;;;3.83;;
19260;SDS011;9764;48.114;11.670;2023-06-10T02:22:51;4.07;;;3.78;;
19260;SDS011;9764;48.114;11.670;2023-06-10T02:25:19;3.80;;;3.40;;
19260;SDS011;9764;48.114;11.670;2023-06-10T02:27:49;4.45;;;4.03;;
19260;SDS011;9764;48.114;11.670;2023-06-10T02:30:19;4.32;;;3.92;;
19260;SDS011;9764;48.114;11.670;2023-06-10T02:32:47;4.57;;;4.10;;
19260;SDS011;9764;48.114;11.670;2023-06-10T02:35:19;4.32;;;3.92;;
19260;SDS011;9764;48.114;11.670;2023-06-10T02:37:49;4.65;;;4.25;;
19260;SDS011;9764;48.114;11.670;2023-06-10T02:40:19;4.85;;;3.60;;
19260;SDS011;9764;48.114;11.670;2023-06-10T02:42:48;4.43;;;3.90;;
19260;SDS011;9764;48.114;11.670;2023-06-10T02:45:16;5.38;;;4.35;;
19260;SDS011;9764;48.114;11.670;2023-06-10T02:47:47;6.10;;;5.50;;
19260;SDS011;9764;48.114;11.670;2023-06-10T02:50:15;6.18;;;5.25;;
19260;SDS011;9764;48.114;11.670;2023-06-10T02:52:56;6.38;;;5.45;;
19260;SDS011;9764;48.114;11.670;2023-06-10T02:55:25;6.25;;;5.10;;
19260;SDS011;9764;48.114;11.670;2023-06-10T02:57:59;5.22;;;4.72;;
19260;SDS011;9764;48.114;11.670;2023-06-10T03:00:29;6.30;;;4.90;;
19260;SDS011;9764;48.114;11.670;2023-06-10T03:02:58;6.53;;;5.05;;
19260;SDS011;9764;48.114;11.670;2023-06-10T03:05:33;5.70;;;5.10;;
19260;SDS011;9764;48.114;11.670;2023-06-10T03:08:04;6.30;;;4.93;;
19260;SDS011;9764;48.114;11.670;2023-06-10T03:10:36;5.25;;;4.75;;
19260;SDS011;9764;48.114;11.670;2023-06-10T03:13:04;4.60;;;4.05;;
19260;SDS011;9764;48.114;11.670;2023-06-10T03:15:34;5.45;;;4.40;;
19260;SDS011;9764;48.114;11.670;2023-06-10T03:18:06;5.28;;;4.28;;
19260;SDS011;9764;48.114;11.670;2023-06-10T03:20:35;5.18;;;4.68;;
19260;SDS011;9764;48.114;11.670;2023-06-10T03:23:05;4.88;;;4.40;;
19260;SDS011;9764;48.114;11.670;2023-06-10T03:25:34;4.90;;;4.40;;
19260;SDS011;9764;48.114;11.670;2023-06-10T03:28:03;5.30;;;3.97;;
19260;SDS011;9764;48.114;11.670;2023-06-10T03:30:37;7.85;;;4.13;;
19260;SDS011;9764;48.114;11.670;2023-06-10T03:33:05;6.30;;;4.55;;
19260;SDS011;9764;48.114;11.670;2023-06-10T03:35:34;7.65;;;4.28;;
19260;SDS011;9764;48.114;11.670;2023-06-10T03:38:04;6.07;;;4.30;;
19260;SDS011;9764;48.114;11.670;2023-06-10T03:40:33;4.35;;;3.95;;
19260;SDS011;9764;48.114;11.670;2023-06-10T03:43:02;8.45;;;4.65;;
19260;SDS011;9764;48.114;11.670;2023-06-10T03:45:31;4.72;;;3.97;;
19260;SDS011;9764;48.114;11.670;2023-06-10T03:48:02;4.53;;;4.13;;
19260;SDS011;9764;48.114;11.670;2023-06-10T03:50:40;6.72;;;4.25;;
19260;SDS011;9764;48.114;11.670;2023-06-10T03:53:08;4.88;;;4.30;;
19260;SDS011;9764;48.114;11.670;2023-06-10T03:55:39;4.38;;;3.78;;
19260;SDS011;9764;48.114;11.670;2023-06-10T03:58:08;5.70;;;4.40;;
19260;SDS011;9764;48.114;11.670;2023-06-10T04:00:40;4.90;;;4.20;;
19260;SDS011;9764;48.114;11.670;2023-06-10T04:03:12;4.53;;;4.10;;
19260;SDS011;9764;48.114;11.670;2023-06-10T04:05:46;4.50;;;4.10;;
19260;SDS011;9764;48.114;11.670;2023-06-10T04:08:15;5.78;;;4.32;;
19260;SDS011;9764;48.114;11.670;2023-06-10T04:10:44;4.78;;;4.15;;
19260;SDS011;9764;48.114;11.670;2023-06-10T04:13:12;5.22;;;4.55;;
19260;SDS011;9764;48.114;11.670;2023-06-10T04:15:49;5.38;;;4.00;;
19260;SDS011;9764;48.114;11.670;2023-06-10T04:18:19;6.65;;;4.63;;
19260;SDS011;9764;48.114;11.670;2023-06-10T04:20:49;4.18;;;3.80;;
19260;SDS011;9764;48.114;11.670;2023-06-10T04:23:20;5.82;;;4.68;;
19260;SDS011;9764;48.114;11.670;2023-06-10T04:25:50;5.22;;;4.55;;
19260;SDS011;9764;48.114;11.670;2023-06-10T04:28:24;5.20;;;4.45;;
19260;SDS011;9764;48.114;11.670;2023-06-10T04:30:52;5.97;;;4.35;;
19260;SDS011;9764;48.114;11.670;2023-06-10T04:33:23;5.68;;;4.38;;
19260;SDS011;9764;48.114;11.670;2023-06-10T04:35:52;4.97;;;4.13;;
19260;SDS011;9764;48.114;11.670;2023-06-10T04:38:23;4.50;;;3.97;;
19260;SDS011;9764;48.114;11.670;2023-06-10T04:40:52;6.00;;;4.28;;
19260;SDS011;9764;48.114;11.670;2023-06-10T04:43:22;4.45;;;4.05;;
19260;SDS011;9764;48.114;11.670;2023-06-10T04:45:51;5.32;;;4.82;;
19260;SDS011;9764;48.114;11.670;2023-06-10T04:48:20;5.65;;;4.47;;
19260;SDS011;9764;48.114;11.670;2023-06-10T04:50:52;5.20;;;4.47;;
19260;SDS011;9764;48.114;11.670;2023-06-10T04:53:21;4.75;;;4.03;;
19260;SDS011;9764;48.114;11.670;2023-06-10T04:55:49;4.45;;;4.05;;
19260;SDS011;9764;48.114;11.670;2023-06-10T04:58:17;7.28;;;4.60;;
19260;SDS011;9764;48.114;11.670;2023-06-10T05:00:45;6.13;;;4.80;;
19260;SDS011;9764;48.114;11.670;2023-06-10T05:03:14;5.18;;;4.50;;
19260;SDS011;9764;48.114;11.670;2023-06-10T05:05:42;5.15;;;4.28;;
19260;SDS011;9764;48.114;11.670;2023-06-10T05:08:13;4.70;;;4.10;;
19260;SDS011;9764;48.114;11.670;2023-06-10T05:10:42;4.78;;;4.38;;
19260;SDS011;9764;48.114;11.670;2023-06-10T05:13:10;6.50;;;4.47;;
19260;SDS011;9764;48.114;11.670;2023-06-10T05:15:39;5.22;;;4.32;;
19260;SDS011;9764;48.114;11.670;2023-06-10T05:18:11;5.68;;;3.92;;
19260;SDS011;9764;48.114;11.670;2023-06-10T05:20:43;5.85;;;4.63;;
19260;SDS011;9764;48.114;11.670;2023-06-10T05:23:13;5.68;;;4.72;;
19260;SDS011;9764;48.114;11.670;2023-06-10T05:25:41;6.05;;;5.28;;
19260;SDS011;9764;48.114;11.670;2023-06-10T05:28:10;5.72;;;5.13;;
19260;SDS011;9764;48.114;11.670;2023-06-10T05:30:41;7.15;;;5.97;;
19260;SDS011;9764;48.114;11.670;2023-06-10T05:33:09;6.63;;;5.78;;
19260;SDS011;9764;48.114;11.670;2023-06-10T05:35:39;8.52;;;5.28;;
19260;SDS011;9764;48.114;11.670;2023-06-10T05:38:07;6.38;;;4.97;;
19260;SDS011;9764;48.114;11.670;2023-06-10T05:40:38;7.13;;;5.40;;
19260;SDS011;9764;48.114;11.670;2023-06-10T05:43:11;6.53;;;4.78;;
19260;SDS011;9764;48.114;11.670;2023-06-10T05:45:39;6.13;;;5.53;;
19260;SDS011;9764;48.114;11.670;2023-06-10T05:48:09;6.72;;;5.30;;
19260;SDS011;9764;48.114;11.670;2023-06-10T05:50:37;6.70;;;5.40;;
19260;SDS011;9764;48.114;11.670;2023-06-10T05:53:10;8.10;;;5.20;;
19260;SDS011;9764;48.114;11.670;2023-06-10T05:55:43;6.82;;;5.25;;
19260;SDS011;9764;48.114;11.670;2023-06-10T05:58:14;8.38;;;5.20;;
19260;SDS011;9764;48.114;11.670;2023-06-10T06:00:43;5.78;;;5.20;;
19260;SDS011;9764;48.114;11.670;2023-06-10T06:03:12;5.60;;;4.55;;
19260;SDS011;9764;48.114;11.670;2023-06-10T06:05:43;6.45;;;5.07;;
19260;SDS011;9764;48.114;11.670;2023-06-10T06:08:12;5.18;;;4.68;;
19260;SDS011;9764;48.114;11.670;2023-06-10T06:10:47;9.07;;;6.32;;
19260;SDS011;9764;48.114;11.670;2023-06-10T06:13:16;16.88;;;15.38;;
19260;SDS011;9764;48.114;11.670;2023-06-10T06:15:50;12.75;;;10.20;;
19260;SDS011;9764;48.114;11.670;2023-06-10T06:18:22;13.43;;;8.70;;
19260;SDS011;9764;48.114;11.670;2023-06-10T06:20:50;12.40;;;6.65;;
19260;SDS011;9764;48.114;11.670;2023-06-10T06:23:19;9.60;;;5.72;;
19260;SDS011;9764;48.114;11.670;2023-06-10T06:25:50;6.75;;;5.15;;
19260;SDS011;9764;48.114;11.670;2023-06-10T06:28:19;7.05;;;4.70;;
19260;SDS011;9764;48.114;11.670;2023-06-10T06:30:48;7.72;;;5.05;;
19260;SDS011;9764;48.114;11.670;2023-06-10T06:33:19;6.88;;;4.65;;
19260;SDS011;9764;48.114;11.670;2023-06-10T06:35:53;5.72;;;4.88;;
19260;SDS011;9764;48.114;11.670;2023-06-10T06:38:21;6.80;;;4.88;;
19260;SDS011;9764;48.114;11.670;2023-06-10T06:40:51;5.35;;;4.60;;
19260;SDS011;9764;48.114;11.670;2023-06-10T06:43:19;6.70;;;4.60;;
19260;SDS011;9764;48.114;11.670;2023-06-10T06:46:29;6.43;;;4.60;;
19260;SDS011;9764;48.114;11.670;2023-06-10T06:48:58;7.50;;;5.30;;
19260;SDS011;9764;48.114;11.670;2023-06-10T06:51:27;6.30;;;4.90;;
19260;SDS011;9764;48.114;11.670;2023-06-10T06:53:57;6.05;;;4.90;;
19260;SDS011;9764;48.114;11.670;2023-06-10T06:56:27;5.10;;;4.40;;
19260;SDS011;9764;48.114;11.670;2023-06-10T06:59:03;4.57;;;4.18;;
19260;SDS011;9764;48.114;11.670;2023-06-10T07:01:32;5.38;;;4.80;;
19260;SDS011;9764;48.114;11.670;2023-06-10T07:04:01;5.30;;;4.30;;
19260;SDS011;9764;48.114;11.670;2023-06-10T07:06:31;5.57;;;4.40;;
19260;SDS011;9764;48.114;11.670;2023-06-10T07:09:06;6.53;;;4.20;;
19260;SDS011;9764;48.114;11.670;2023-06-10T07:11:37;7.65;;;4.82;;
19260;SDS011;9764;48.114;11.670;2023-06-10T07:14:06;4.50;;;4.10;;
19260;SDS011;9764;48.114;11.670;2023-06-10T07:16:35;5.32;;;4.22;;
19260;SDS011;9764;48.114;11.670;2023-06-10T07:19:03;5.43;;;4.00;;
19260;SDS011;9764;48.114;11.670;2023-06-10T07:21:32;6.68;;;4.53;;
19260;SDS011;9764;48.114;11.670;2023-06-10T07:24:01;4.82;;;4.05;;
19260;SDS011;9764;48.114;11.670;2023-06-10T07:26:30;5.57;;;4.50;;
19260;SDS011;9764;48.114;11.670;2023-06-10T07:29:00;4.55;;;4.15;;
19260;SDS011;9764;48.114;11.670;2023-06-10T07:31:30;4.55;;;4.15;;
19260;SDS011;9764;48.114;11.670;2023-06-10T07:33:58;5.05;;;4.28;;
19260;SDS011;9764;48.114;11.670;2023-06-10T07:36:27;4.72;;;4.18;;
19260;SDS011;9764;48.114;11.670;2023-06-10T07:38:56;6.05;;;3.85;;
19260;SDS011;9764;48.114;11.670;2023-06-10T07:41:24;5.47;;;4.00;;
19260;SDS011;9764;48.114;11.670;2023-06-10T07:43:53;4.40;;;4.00;;
19260;SDS011;9764;48.114;11.670;2023-06-10T07:46:24;4.35;;;3.95;;
19260;SDS011;9764;48.114;11.670;2023-06-10T07:48:54;4.57;;;4.18;;
19260;SDS011;9764;48.114;11.670;2023-06-10T07:51:22;4.32;;;3.92;;
19260;SDS011;9764;48.114;11.670;2023-06-10T07:53:50;4.88;;;4.47;;
19260;SDS011;9764;48.114;11.670;2023-06-10T07:56:19;4.78;;;4.38;;
19260;SDS011;9764;48.114;11.670;2023-06-10T07:58:48;4.95;;;4.55;;
19260;SDS011;9764;48.114;11.670;2023-06-10T08:01:16;5.20;;;4.50;;
19260;SDS011;9764;48.114;11.670;2023-06-10T08:03:46;4.53;;;4.05;;
19260;SDS011;9764;48.114;11.670;2023-06-10T08:06:15;4.50;;;4.10;;
19260;SDS011;9764;48.114;11.670;2023-06-10T08:08:44;4.70;;;4.30;;
19260;SDS011;9764;48.114;11.670;2023-06-10T08:11:13;4.10;;;3.70;;
19260;SDS011;9764;48.114;11.670;2023-06-10T08:13:42;4.00;;;3.70;;
19260;SDS011;9764;48.114;11.670;2023-06-10T08:16:10;4.60;;;4.20;;
19260;SDS011;9764;48.114;11.670;2023-06-10T08:18:39;6.82;;;5.18;;
19260;SDS011;9764;48.114;11.670;2023-06-10T08:21:09;8.15;;;7.28;;
19260;SDS011;9764;48.114;11.670;2023-06-10T08:23:38;7.15;;;6.13;;
19260;SDS011;9764;48.114;11.670;2023-06-10T08:26:07;7.00;;;5.50;;
19260;SDS011;9764;48.114;11.670;2023-06-10T08:28:35;5.90;;;4.80;;
19260;SDS011;9764;48.114;11.670;2023-06-10T08:31:03;5.18;;;4.65;;
19260;SDS011;9764;48.114;11.670;2023-06-10T08:33:32;5.07;;;4.57;;
19260;SDS011;9764;48.114;11.670;2023-06-10T08:36:00;5.03;;;4.55;;
19260;SDS011;9764;48.114;11.670;2023-06-10T08:38:30;4.85;;;4.32;;
19260;SDS011;9764;48.114;11.670;2023-06-10T08:41:02;5.03;;;4.60;;
19260;SDS011;9764;48.114;11.670;2023-06-10T08:43:34;5.72;;;4.90;;
19260;SDS011;9764;48.114;11.670;2023-06-10T08:46:07;4.68;;;4.28;;
19260;SDS011;9764;48.114;11.670;2023-06-10T08:48:38;5.50;;;5.00;;
19260;SDS011;9764;48.114;11.670;2023-06-10T08:51:11;4.95;;;4.03;;
19260;SDS011;9764;48.114;11.670;2023-06-10T08:53:42;4.82;;;4.40;;
19260;SDS011;9764;48.114;11.670;2023-06-10T08:56:17;5.95;;;4.80;;
19260;SDS011;9764;48.114;11.670;2023-06-10T08:58:46;4.78;;;4.38;;
19260;SDS011;9764;48.114;11.670;2023-06-10T09:01:15;4.60;;;4.15;;
19260;SDS011;9764;48.114;11.670;2023-06-10T09:03:45;4.65;;;4.20;;
19260;SDS011;9764;48.114;11.670;2023-06-10T09:06:13;5.05;;;4.65;;
19260;SDS011;9764;48.114;11.670;2023-06-10T09:08:43;4.78;;;4.38;;
19260;SDS011;9764;48.114;11.670;2023-06-10T09:11:12;5.93;;;3.92;;
19260;SDS011;9764;48.114;11.670;2023-06-10T09:13:40;4.82;;;4.32;;
19260;SDS011;9764;48.114;11.670;2023-06-10T09:16:08;4.63;;;4.22;;
19260;SDS011;9764;48.114;11.670;2023-06-10T09:18:38;4.40;;;4.00;;
19260;SDS011;9764;48.114;11.670;2023-06-10T09:21:06;4.35;;;3.95;;
19260;SDS011;9764;48.114;11.670;2023-06-10T09:23:35;4.47;;;4.07;;
19260;SDS011;9764;48.114;11.670;2023-06-10T09:26:07;4.70;;;4.30;;
19260;SDS011;9764;48.114;11.670;2023-06-10T09:28:37;4.65;;;4.20;;
19260;SDS011;9764;48.114;11.670;2023-06-10T09:31:06;4.35;;;3.95;;
19260;SDS011;9764;48.114;11.670;2023-06-10T09:33:36;5.13;;;3.95;;
19260;SDS011;9764;48.114;11.670;2023-06-10T09:36:06;4.10;;;3.70;;
19260;SDS011;9764;48.114;11.670;2023-06-10T09:38:34;4.05;;;3.65;;
19260;SDS011;9764;48.114;11.670;2023-06-10T09:41:04;5.38;;;3.90;;
19260;SDS011;9764;48.114;11.670;2023-06-10T09:43:40;3.60;;;3.33;;
19260;SDS011;9764;48.114;11.670;2023-06-10T09:46:16;4.20;;;3.63;;
19260;SDS011;9764;48.114;11.670;2023-06-10T09:48:46;3.90;;;3.60;;
19260;SDS011;9764;48.114;11.670;2023-06-10T09:51:15;3.83;;;3.53;;
19260;SDS011;9764;48.114;11.670;2023-06-10T09:53:47;3.70;;;3.40;;
19260;SDS011;9764;48.114;11.670;2023-06-10T09:56:16;3.97;;;3.20;;
19260;SDS011;9764;48.114;11.670;2023-06-10T09:58:46;3.75;;;3.38;;
19260;SDS011;9764;48.114;11.670;2023-06-10T10:01:14;3.90;;;3.30;;
19260;SDS011;9764;48.114;11.670;2023-06-10T10:03:46;3.67;;;3.35;;
19260;SDS011;9764;48.114;11.670;2023-06-10T10:06:17;3.30;;;3.00;;
19260;SDS011;9764;48.114;11.670;2023-06-10T10:08:47;3.28;;;2.97;;
19260;SDS011;9764;48.114;11.670;2023-06-10T10:11:17;3.45;;;3.13;;
19260;SDS011;9764;48.114;11.670;2023-06-10T10:13:48;3.20;;;2.90;;
19260;SDS011;9764;48.114;11.670;2023-06-10T10:16:18;3.45;;;3.15;;
19260;SDS011;9764;48.114;11.670;2023-06-10T10:18:49;3.50;;;3.15;;
19260;SDS011;9764;48.114;11.670;2023-06-10T10:21:22;2.95;;;2.75;;
19260;SDS011;9764;48.114;11.670;2023-06-10T10:23:57;3.33;;;3.03;;
19260;SDS011;9764;48.114;11.670;2023-06-10T10:26:30;3.00;;;2.80;;
19260;SDS011;9764;48.114;11.670;2023-06-10T10:29:05;3.20;;;2.97;;
19260;SDS011;9764;48.114;11.670;2023-06-10T10:31:38;2.97;;;2.78;;
19260;SDS011;9764;48.114;11.670;2023-06-10T10:34:12;3.08;;;2.88;;
19260;SDS011;9764;48.114;11.670;2023-06-10T10:36:43;3.28;;;2.97;;
19260;SDS011;9764;48.114;11.670;2023-06-10T10:39:14;3.03;;;2.78;;
19260;SDS011;9764;48.114;11.670;2023-06-10T10:41:43;3.33;;;3.08;;
19260;SDS011;9764;48.114;11.670;2023-06-10T10:44:14;3.17;;;2.97;;
19260;SDS011;9764;48.114;11.670;2023-06-10T10:46:44;3.20;;;2.90;;
19260;SDS011;9764;48.114;11.670;2023-06-10T10:49:17;2.95;;;2.72;;
19260;SDS011;9764;48.114;11.670;2023-06-10T10:51:55;3.05;;;2.78;;
19260;SDS011;9764;48.114;11.670;2023-06-10T10:54:28;3.60;;;3.00;;
19260;SDS011;9764;48.114;11.670;2023-06-10T10:57:11;3.22;;;3.03;;
19260;SDS011;9764;48.114;11.670;2023-06-10T10:59:52;3.40;;;3.10;;
19260;SDS011;9764;48.114;11.670;2023-06-10T11:05:11;5.53;;;3.80;;
19260;SDS011;9764;48.114;11.670;2023-06-10T11:07:51;3.72;;;3.42;;
19260;SDS011;9764;48.114;11.670;2023-06-10T11:10:28;3.40;;;3.10;;
19260;SDS011;9764;48.114;11.670;2023-06-10T11:12:58;3.22;;;2.72;;
19260;SDS011;9764;48.114;11.670;2023-06-10T11:15:28;3.67;;;3.38;;
19260;SDS011;9764;48.114;11.670;2023-06-10T11:18:07;3.30;;;3.00;;
19260;SDS011;9764;48.114;11.670;2023-06-10T11:20:50;3.33;;;3.03;;
19260;SDS011;9764;48.114;11.670;2023-06-10T11:26:13;3.33;;;3.08;;
19260;SDS011;9764;48.114;11.670;2023-06-10T11:31:51;3.25;;;2.95;;
19260;SDS011;9764;48.114;11.670;2023-06-10T11:34:22;3.17;;;2.97;;
19260;SDS011;9764;48.114;11.670;2023-06-10T11:36:53;3.38;;;3.08;;
19260;SDS011;9764;48.114;11.670;2023-06-10T11:39:21;3.13;;;2.92;;
19260;SDS011;9764;48.114;11.670;2023-06-10T11:41:53;3.30;;;3.00;;
19260;SDS011;9764;48.114;11.670;2023-06-10T11:44:22;3.65;;;3.33;;
19260;SDS011;9764;48.114;11.670;2023-06-10T11:46:57;3.83;;;3.10;;
19260;SDS011;9764;48.114;11.670;2023-06-10T11:49:26;3.10;;;2.88;;
19260;SDS011;9764;48.114;11.670;2023-06-10T11:51:54;3.05;;;2.85;;
19260;SDS011;9764;48.114;11.670;2023-06-10T11:54:23;3.67;;;3.03;;
19260;SDS011;9764;48.114;11.670;2023-06-10T11:56:56;2.85;;;2.55;;
19260;SDS011;9764;48.114;11.670;2023-06-10T11:59:26;4.13;;;3.00;;
19260;SDS011;9764;48.114;11.670;2023-06-10T12:01:55;3.00;;;2.72;;
19260;SDS011;9764;48.114;11.670;2023-06-10T12:04:25;4.38;;;3.42;;
19260;SDS011;9764;48.114;11.670;2023-06-10T12:06:54;3.72;;;3.35;;
19260;SDS011;9764;48.114;11.670;2023-06-10T12:09:23;3.42;;;3.13;;
19260;SDS011;9764;48.114;11.670;2023-06-10T12:11:54;3.05;;;2.85;;
19260;SDS011;9764;48.114;11.670;2023-06-10T12:17:22;3.08;;;2.88;;
19260;SDS011;9764;48.114;11.670;2023-06-10T12:19:53;3.05;;;2.85;;
19260;SDS011;9764;48.114;11.670;2023-06-10T12:22:21;3.00;;;2.78;;
19260;SDS011;9764;48.114;11.670;2023-06-10T12:24:59;2.60;;;2.40;;
19260;SDS011;9764;48.114;11.670;2023-06-10T12:27:30;3.10;;;2.83;;
19260;SDS011;9764;48.114;11.670;2023-06-10T12:30:00;2.90;;;2.70;;
19260;SDS011;9764;48.114;11.670;2023-06-10T12:32:39;3.40;;;3.10;;
19260;SDS011;9764;48.114;11.670;2023-06-10T12:35:10;3.63;;;2.97;;
19260;SDS011;9764;48.114;11.670;2023-06-10T12:37:42;4.03;;;2.85;;
19260;SDS011;9764;48.114;11.670;2023-06-10T12:40:25;3.08;;;2.88;;
19260;SDS011;9764;48.114;11.670;2023-06-10T12:42:54;2.90;;;2.60;;
19260;SDS011;9764;48.114;11.670;2023-06-10T12:45:26;3.08;;;2.53;;
19260;SDS011;9764;48.114;11.670;2023-06-10T12:48:05;2.78;;;2.58;;
19260;SDS011;9764;48.114;11.670;2023-06-10T12:50:37;3.10;;;2.90;;
19260;SDS011;9764;48.114;11.670;2023-06-10T12:53:08;2.88;;;2.67;;
19260;SDS011;9764;48.114;11.670;2023-06-10T12:55:38;2.60;;;2.40;;
19260;SDS011;9764;48.114;11.670;2023-06-10T12:58:06;2.97;;;2.78;;
19260;SDS011;9764;48.114;11.670;2023-06-10T13:00:34;2.72;;;2.53;;
19260;SDS011;9764;48.114;11.670;2023-06-10T13:03:03;2.90;;;2.70;;
19260;SDS011;9764;48.114;11.670;2023-06-10T13:05:34;3.00;;;2.75;;
19260;SDS011;9764;48.114;11.670;2023-06-10T13:08:05;2.92;;;2.72;;
19260;SDS011;9764;48.114;11.670;2023-06-10T13:10:34;3.20;;;2.90;;
19260;SDS011;9764;48.114;11.670;2023-06-10T13:13:02;3.42;;;2.72;;
19260;SDS011;9764;48.114;11.670;2023-06-10T13:15:32;2.75;;;2.55;;
19260;SDS011;9764;48.114;11.670;2023-06-10T13:18:08;2.63;;;2.42;;
19260;SDS011;9764;48.114;11.670;2023-06-10T13:20:37;2.80;;;2.60;;
19260;SDS011;9764;48.114;11.670;2023-06-10T13:23:06;3.35;;;2.35;;
19260;SDS011;9764;48.114;11.670;2023-06-10T13:25:35;2.83;;;2.58;;
19260;SDS011;9764;48.114;11.670;2023-06-10T13:28:03;2.58;;;2.38;;
19260;SDS011;9764;48.114;11.670;2023-06-10T13:30:31;2.60;;;2.40;;
19260;SDS011;9764;48.114;11.670;2023-06-10T13:33:00;2.85;;;2.65;;
19260;SDS011;9764;48.114;11.670;2023-06-10T13:35:29;3.00;;;2.70;;
19260;SDS011;9764;48.114;11.670;2023-06-10T13:37:57;2.78;;;2.58;;
19260;SDS011;9764;48.114;11.670;2023-06-10T13:40:27;2.85;;;2.65;;
19260;SDS011;9764;48.114;11.670;2023-06-10T13:42:55;2.97;;;2.72;;
19260;SDS011;9764;48.114;11.670;2023-06-10T13:45:23;2.80;;;2.60;;
19260;SDS011;9764;48.114;11.670;2023-06-10T13:47:52;2.72;;;2.53;;
19260;SDS011;9764;48.114;11.670;2023-06-10T13:50:21;4.32;;;2.97;;
19260;SDS011;9764;48.114;11.670;2023-06-10T13:52:49;2.92;;;2.72;;
19260;SDS011;9764;48.114;11.670;2023-06-10T13:55:17;2.53;;;2.33;;
19260;SDS011;9764;48.114;11.670;2023-06-10T13:57:48;2.78;;;2.58;;
19260;SDS011;9764;48.114;11.670;2023-06-10T14:00:16;2.47;;;2.28;;
19260;SDS011;9764;48.114;11.670;2023-06-10T14:02:45;3.00;;;2.55;;
19260;SDS011;9764;48.114;11.670;2023-06-10T14:05:14;3.00;;;2.58;;
19260;SDS011;9764;48.114;11.670;2023-06-10T14:07:43;2.75;;;2.55;;
19260;SDS011;9764;48.114;11.670;2023-06-10T14:10:11;2.83;;;2.47;;
19260;SDS011;9764;48.114;11.670;2023-06-10T14:12:39;2.85;;;2.65;;
19260;SDS011;9764;48.114;11.670;2023-06-10T14:15:10;2.63;;;2.13;;
19260;SDS011;9764;48.114;11.670;2023-06-10T14:17:39;3.05;;;2.75;;
19260;SDS011;9764;48.114;11.670;2023-06-10T14:20:07;2.90;;;2.70;;
19260;SDS011;9764;48.114;11.670;2023-06-10T14:22:36;4.15;;;2.58;;
19260;SDS011;9764;48.114;11.670;2023-06-10T14:25:05;2.85;;;2.65;;
19260;SDS011;9764;48.114;11.670;2023-06-10T14:27:34;2.83;;;2.63;;
19260;SDS011;9764;48.114;11.670;2023-06-10T14:30:03;2.78;;;2.58;;
19260;SDS011;9764;48.114;11.670;2023-06-10T14:32:33;2.60;;;2.40;;
19260;SDS011;9764;48.114;11.670;2023-06-10T14:35:02;2.72;;;2.53;;
19260;SDS011;9764;48.114;11.670;2023-06-10T14:37:31;2.53;;;2.33;;
19260;SDS011;9764;48.114;11.670;2023-06-10T14:40:00;2.83;;;2.63;;
19260;SDS011;9764;48.114;11.670;2023-06-10T14:42:28;2.90;;;2.70;;
19260;SDS011;9764;48.114;11.670;2023-06-10T14:44:58;3.08;;;2.83;;
19260;SDS011;9764;48.114;11.670;2023-06-10T14:47:27;4.72;;;2.78;;
19260;SDS011;9764;48.114;11.670;2023-06-10T14:49:57;2.55;;;2.35;;
19260;SDS011;9764;48.114;11.670;2023-06-10T14:52:25;2.50;;;2.30;;
19260;SDS011;9764;48.114;11.670;2023-06-10T14:54:53;2.80;;;2.60;;
19260;SDS011;9764;48.114;11.670;2023-06-10T14:57:22;2.72;;;2.53;;
19260;SDS011;9764;48.114;11.670;2023-06-10T14:59:50;2.88;;;2.67;;
19260;SDS011;9764;48.114;11.670;2023-06-10T15:02:18;2.78;;;2.58;;
19260;SDS011;9764;48.114;11.670;2023-06-10T15:04:47;2.78;;;2.58;;
19260;SDS011;9764;48.114;11.670;2023-06-10T15:07:16;4.13;;;2.67;;
19260;SDS011;9764;48.114;11.670;2023-06-10T15:09:45;3.05;;;2.63;;
19260;SDS011;9764;48.114;11.670;2023-06-10T15:12:13;3.10;;;2.80;;
19260;SDS011;9764;48.114;11.670;2023-06-10T15:14:41;2.53;;;2.33;;
19260;SDS011;9764;48.114;11.670;2023-06-10T15:17:17;3.25;;;2.13;;